sensor_id;sensor_type;location;lat;lon;timestamp;P1;durP1;ratioP1;P2;durP2;ratioP2
18612;SDS011;9436;52.152;21.032;2022-09-02T00:01:33;2.20;;;1.80;;
18612;SDS011;9436;52.152;21.032;2022-09-02T00:04:04;3.43;;;1.80;;
18612;SDS011;9436;52.152;21.032;2022-09-02T00:06:32;2.27;;;1.87;;
18612;SDS011;9436;52.152;21.032;2022-09-02T00:09:00;3.57;;;2.23;;
18612;SDS011;9436;52.152;21.032;2022-09-02T00:11:30;2.57;;;1.57;;
18612;SDS011;9436;52.152;21.032;2022-09-02T00:13:59;2.80;;;1.70;;
18612;SDS011;9436;52.152;21.032;2022-09-02T00:16:27;3.40;;;1.43;;
18612;SDS011;9436;52.152;21.032;2022-09-02T00:18:57;2.57;;;1.50;;
18612;SDS011;9436;52.152;21.032;2022-09-02T00:21:26;2.37;;;1.50;;
18612;SDS011;9436;52.152;21.032;2022-09-02T00:23:53;1.80;;;1.43;;
18612;SDS011;9436;52.152;21.032;2022-09-02T00:26:20;2.50;;;1.40;;
18612;SDS011;9436;52.152;21.032;2022-09-02T00:28:47;1.60;;;1.50;;
18612;SDS011;9436;52.152;21.032;2022-09-02T00:31:14;2.63;;;1.80;;
18612;SDS011;9436;52.152;21.032;2022-09-02T00:33:41;2.40;;;1.70;;
18612;SDS011;9436;52.152;21.032;2022-09-02T00:36:08;1.77;;;1.33;;
18612;SDS011;9436;52.152;21.032;2022-09-02T00:38:37;2.27;;;1.47;;
18612;SDS011;9436;52.152;21.032;2022-09-02T00:41:08;2.23;;;1.70;;
18612;SDS011;9436;52.152;21.032;2022-09-02T00:43:38;2.43;;;1.63;;
18612;SDS011;9436;52.152;21.032;2022-09-02T00:46:08;2.40;;;1.67;;
18612;SDS011;9436;52.152;21.032;2022-09-02T00:48:36;1.70;;;1.60;;
18612;SDS011;9436;52.152;21.032;2022-09-02T00:51:08;2.53;;;1.60;;
18612;SDS011;9436;52.152;21.032;2022-09-02T00:53:38;2.10;;;1.87;;
18612;SDS011;9436;52.152;21.032;2022-09-02T00:56:08;2.27;;;1.70;;
18612;SDS011;9436;52.152;21.032;2022-09-02T00:58:38;2.87;;;1.47;;
18612;SDS011;9436;52.152;21.032;2022-09-02T01:01:07;2.30;;;1.67;;
18612;SDS011;9436;52.152;21.032;2022-09-02T01:03:36;2.03;;;1.70;;
18612;SDS011;9436;52.152;21.032;2022-09-02T01:06:04;3.73;;;1.87;;
18612;SDS011;9436;52.152;21.032;2022-09-02T01:08:32;2.87;;;1.70;;
18612;SDS011;9436;52.152;21.032;2022-09-02T01:11:05;1.77;;;1.67;;
18612;SDS011;9436;52.152;21.032;2022-09-02T01:13:35;2.20;;;1.70;;
18612;SDS011;9436;52.152;21.032;2022-09-02T01:16:06;3.10;;;1.77;;
18612;SDS011;9436;52.152;21.032;2022-09-02T01:18:36;1.60;;;1.40;;
18612;SDS011;9436;52.152;21.032;2022-09-02T01:21:04;2.23;;;1.50;;
18612;SDS011;9436;52.152;21.032;2022-09-02T01:23:33;2.90;;;1.80;;
18612;SDS011;9436;52.152;21.032;2022-09-02T01:26:01;1.83;;;1.30;;
18612;SDS011;9436;52.152;21.032;2022-09-02T01:28:29;1.90;;;1.50;;
18612;SDS011;9436;52.152;21.032;2022-09-02T01:30:57;3.47;;;1.60;;
18612;SDS011;9436;52.152;21.032;2022-09-02T01:33:25;1.77;;;1.40;;
18612;SDS011;9436;52.152;21.032;2022-09-02T01:35:52;2.30;;;1.70;;
18612;SDS011;9436;52.152;21.032;2022-09-02T01:38:20;2.07;;;1.73;;
18612;SDS011;9436;52.152;21.032;2022-09-02T01:40:49;1.40;;;1.30;;
18612;SDS011;9436;52.152;21.032;2022-09-02T01:43:17;2.30;;;1.47;;
18612;SDS011;9436;52.152;21.032;2022-09-02T01:45:46;1.30;;;1.20;;
18612;SDS011;9436;52.152;21.032;2022-09-02T01:48:14;2.20;;;1.20;;
18612;SDS011;9436;52.152;21.032;2022-09-02T01:50:42;1.83;;;1.30;;
18612;SDS011;9436;52.152;21.032;2022-09-02T01:53:11;2.33;;;1.50;;
18612;SDS011;9436;52.152;21.032;2022-09-02T01:55:38;1.60;;;1.40;;
18612;SDS011;9436;52.152;21.032;2022-09-02T01:58:07;2.50;;;1.50;;
18612;SDS011;9436;52.152;21.032;2022-09-02T02:00:34;1.57;;;1.40;;
18612;SDS011;9436;52.152;21.032;2022-09-02T02:03:01;1.60;;;1.50;;
18612;SDS011;9436;52.152;21.032;2022-09-02T02:05:28;2.50;;;1.50;;
18612;SDS011;9436;52.152;21.032;2022-09-02T02:07:56;2.37;;;1.37;;
18612;SDS011;9436;52.152;21.032;2022-09-02T02:10:23;1.47;;;1.33;;
18612;SDS011;9436;52.152;21.032;2022-09-02T02:12:50;3.07;;;1.47;;
18612;SDS011;9436;52.152;21.032;2022-09-02T02:15:19;3.60;;;1.80;;
18612;SDS011;9436;52.152;21.032;2022-09-02T02:17:46;4.83;;;1.60;;
18612;SDS011;9436;52.152;21.032;2022-09-02T02:20:14;1.70;;;1.40;;
18612;SDS011;9436;52.152;21.032;2022-09-02T02:22:42;3.20;;;1.53;;
18612;SDS011;9436;52.152;21.032;2022-09-02T02:25:10;1.93;;;1.60;;
18612;SDS011;9436;52.152;21.032;2022-09-02T02:27:39;2.90;;;1.63;;
18612;SDS011;9436;52.152;21.032;2022-09-02T02:30:07;5.53;;;1.93;;
18612;SDS011;9436;52.152;21.032;2022-09-02T02:32:36;2.57;;;1.60;;
18612;SDS011;9436;52.152;21.032;2022-09-02T02:35:04;1.97;;;1.60;;
18612;SDS011;9436;52.152;21.032;2022-09-02T02:37:31;2.17;;;1.50;;
18612;SDS011;9436;52.152;21.032;2022-09-02T02:39:59;2.37;;;1.27;;
18612;SDS011;9436;52.152;21.032;2022-09-02T02:42:26;1.70;;;1.60;;
18612;SDS011;9436;52.152;21.032;2022-09-02T02:44:52;1.87;;;1.43;;
18612;SDS011;9436;52.152;21.032;2022-09-02T02:47:19;3.30;;;1.40;;
18612;SDS011;9436;52.152;21.032;2022-09-02T02:49:48;2.97;;;1.80;;
18612;SDS011;9436;52.152;21.032;2022-09-02T02:52:15;1.60;;;1.50;;
18612;SDS011;9436;52.152;21.032;2022-09-02T02:54:42;3.57;;;1.40;;
18612;SDS011;9436;52.152;21.032;2022-09-02T02:57:09;1.30;;;1.20;;
18612;SDS011;9436;52.152;21.032;2022-09-02T02:59:37;1.77;;;1.30;;
18612;SDS011;9436;52.152;21.032;2022-09-02T03:02:04;1.70;;;1.47;;
18612;SDS011;9436;52.152;21.032;2022-09-02T03:04:31;1.60;;;1.40;;
18612;SDS011;9436;52.152;21.032;2022-09-02T03:07:00;2.00;;;1.30;;
18612;SDS011;9436;52.152;21.032;2022-09-02T03:09:27;1.53;;;1.37;;
18612;SDS011;9436;52.152;21.032;2022-09-02T03:11:55;1.77;;;1.50;;
18612;SDS011;9436;52.152;21.032;2022-09-02T03:14:22;3.60;;;1.60;;
18612;SDS011;9436;52.152;21.032;2022-09-02T03:16:50;1.20;;;1.10;;
18612;SDS011;9436;52.152;21.032;2022-09-02T03:19:17;2.23;;;1.57;;
18612;SDS011;9436;52.152;21.032;2022-09-02T03:21:44;2.57;;;1.70;;
18612;SDS011;9436;52.152;21.032;2022-09-02T03:24:12;4.43;;;1.43;;
18612;SDS011;9436;52.152;21.032;2022-09-02T03:26:39;1.60;;;1.40;;
18612;SDS011;9436;52.152;21.032;2022-09-02T03:29:07;3.63;;;1.30;;
18612;SDS011;9436;52.152;21.032;2022-09-02T03:31:34;3.03;;;1.60;;
18612;SDS011;9436;52.152;21.032;2022-09-02T03:34:02;1.60;;;1.50;;
18612;SDS011;9436;52.152;21.032;2022-09-02T03:36:29;3.17;;;1.80;;
18612;SDS011;9436;52.152;21.032;2022-09-02T03:38:58;2.23;;;1.70;;
18612;SDS011;9436;52.152;21.032;2022-09-02T03:41:26;2.37;;;1.60;;
18612;SDS011;9436;52.152;21.032;2022-09-02T03:43:53;2.87;;;1.60;;
18612;SDS011;9436;52.152;21.032;2022-09-02T03:46:22;2.00;;;1.60;;
18612;SDS011;9436;52.152;21.032;2022-09-02T03:48:49;3.43;;;1.60;;
18612;SDS011;9436;52.152;21.032;2022-09-02T03:51:16;2.53;;;1.67;;
18612;SDS011;9436;52.152;21.032;2022-09-02T03:53:43;1.87;;;1.33;;
18612;SDS011;9436;52.152;21.032;2022-09-02T03:56:11;1.93;;;1.70;;
18612;SDS011;9436;52.152;21.032;2022-09-02T03:58:41;1.80;;;1.50;;
18612;SDS011;9436;52.152;21.032;2022-09-02T04:01:12;1.70;;;1.50;;
18612;SDS011;9436;52.152;21.032;2022-09-02T04:03:40;2.40;;;1.80;;
18612;SDS011;9436;52.152;21.032;2022-09-02T04:06:07;1.50;;;1.40;;
18612;SDS011;9436;52.152;21.032;2022-09-02T04:08:36;2.77;;;1.50;;
18612;SDS011;9436;52.152;21.032;2022-09-02T04:11:04;2.90;;;1.73;;
18612;SDS011;9436;52.152;21.032;2022-09-02T04:13:32;3.20;;;1.50;;
18612;SDS011;9436;52.152;21.032;2022-09-02T04:16:04;2.13;;;1.80;;
18612;SDS011;9436;52.152;21.032;2022-09-02T04:18:31;3.33;;;1.63;;
18612;SDS011;9436;52.152;21.032;2022-09-02T04:20:58;2.53;;;1.63;;
18612;SDS011;9436;52.152;21.032;2022-09-02T04:23:25;2.13;;;1.77;;
18612;SDS011;9436;52.152;21.032;2022-09-02T04:25:53;2.03;;;1.60;;
18612;SDS011;9436;52.152;21.032;2022-09-02T04:28:20;2.60;;;1.70;;
18612;SDS011;9436;52.152;21.032;2022-09-02T04:30:47;2.43;;;1.90;;
18612;SDS011;9436;52.152;21.032;2022-09-02T04:33:15;4.47;;;1.80;;
18612;SDS011;9436;52.152;21.032;2022-09-02T04:35:43;4.70;;;2.10;;
18612;SDS011;9436;52.152;21.032;2022-09-02T04:38:12;2.13;;;1.70;;
18612;SDS011;9436;52.152;21.032;2022-09-02T04:40:39;4.00;;;2.03;;
18612;SDS011;9436;52.152;21.032;2022-09-02T04:43:07;2.93;;;2.00;;
18612;SDS011;9436;52.152;21.032;2022-09-02T04:45:34;2.47;;;1.83;;
18612;SDS011;9436;52.152;21.032;2022-09-02T04:48:04;3.80;;;2.10;;
18612;SDS011;9436;52.152;21.032;2022-09-02T04:50:34;4.60;;;2.07;;
18612;SDS011;9436;52.152;21.032;2022-09-02T04:53:01;5.43;;;2.00;;
18612;SDS011;9436;52.152;21.032;2022-09-02T04:55:29;5.93;;;2.03;;
18612;SDS011;9436;52.152;21.032;2022-09-02T04:57:56;3.30;;;2.30;;
18612;SDS011;9436;52.152;21.032;2022-09-02T05:00:23;6.13;;;2.20;;
18612;SDS011;9436;52.152;21.032;2022-09-02T05:02:51;3.93;;;2.20;;
18612;SDS011;9436;52.152;21.032;2022-09-02T05:05:18;4.90;;;2.20;;
18612;SDS011;9436;52.152;21.032;2022-09-02T05:07:47;2.73;;;1.93;;
18612;SDS011;9436;52.152;21.032;2022-09-02T05:10:14;8.40;;;2.27;;
18612;SDS011;9436;52.152;21.032;2022-09-02T05:12:41;4.83;;;2.30;;
18612;SDS011;9436;52.152;21.032;2022-09-02T05:15:08;3.63;;;2.30;;
18612;SDS011;9436;52.152;21.032;2022-09-02T05:17:36;4.93;;;2.30;;
18612;SDS011;9436;52.152;21.032;2022-09-02T05:20:03;3.63;;;2.20;;
18612;SDS011;9436;52.152;21.032;2022-09-02T05:22:31;4.57;;;2.07;;
18612;SDS011;9436;52.152;21.032;2022-09-02T05:25:00;5.80;;;2.40;;
18612;SDS011;9436;52.152;21.032;2022-09-02T05:27:27;5.13;;;2.33;;
18612;SDS011;9436;52.152;21.032;2022-09-02T05:29:54;4.63;;;2.00;;
18612;SDS011;9436;52.152;21.032;2022-09-02T05:32:23;5.00;;;2.07;;
18612;SDS011;9436;52.152;21.032;2022-09-02T05:34:51;4.63;;;2.00;;
18612;SDS011;9436;52.152;21.032;2022-09-02T05:37:18;7.93;;;2.20;;
18612;SDS011;9436;52.152;21.032;2022-09-02T05:39:45;4.63;;;2.00;;
18612;SDS011;9436;52.152;21.032;2022-09-02T05:42:14;4.03;;;2.30;;
18612;SDS011;9436;52.152;21.032;2022-09-02T05:44:41;5.90;;;2.23;;
18612;SDS011;9436;52.152;21.032;2022-09-02T05:47:09;3.20;;;1.90;;
18612;SDS011;9436;52.152;21.032;2022-09-02T05:49:36;3.00;;;1.97;;
18612;SDS011;9436;52.152;21.032;2022-09-02T05:52:04;4.93;;;3.13;;
18612;SDS011;9436;52.152;21.032;2022-09-02T05:54:35;4.90;;;2.10;;
18612;SDS011;9436;52.152;21.032;2022-09-02T05:57:04;3.40;;;2.00;;
18612;SDS011;9436;52.152;21.032;2022-09-02T05:59:34;6.53;;;2.03;;
18612;SDS011;9436;52.152;21.032;2022-09-02T06:02:02;4.87;;;2.30;;
18612;SDS011;9436;52.152;21.032;2022-09-02T06:04:29;5.40;;;1.90;;
18612;SDS011;9436;52.152;21.032;2022-09-02T06:06:57;6.13;;;2.03;;
18612;SDS011;9436;52.152;21.032;2022-09-02T06:09:24;4.60;;;1.67;;
18612;SDS011;9436;52.152;21.032;2022-09-02T06:11:51;3.57;;;1.90;;
18612;SDS011;9436;52.152;21.032;2022-09-02T06:14:18;5.70;;;1.87;;
18612;SDS011;9436;52.152;21.032;2022-09-02T06:16:48;4.00;;;1.90;;
18612;SDS011;9436;52.152;21.032;2022-09-02T06:19:15;3.03;;;1.63;;
18612;SDS011;9436;52.152;21.032;2022-09-02T06:21:43;5.53;;;1.70;;
18612;SDS011;9436;52.152;21.032;2022-09-02T06:24:10;5.70;;;1.93;;
18612;SDS011;9436;52.152;21.032;2022-09-02T06:26:38;4.17;;;2.00;;
18612;SDS011;9436;52.152;21.032;2022-09-02T06:29:07;3.63;;;1.60;;
18612;SDS011;9436;52.152;21.032;2022-09-02T06:31:35;4.10;;;1.73;;
18612;SDS011;9436;52.152;21.032;2022-09-02T06:34:04;2.67;;;1.40;;
18612;SDS011;9436;52.152;21.032;2022-09-02T06:36:31;2.73;;;1.47;;
18612;SDS011;9436;52.152;21.032;2022-09-02T06:38:58;4.67;;;1.90;;
18612;SDS011;9436;52.152;21.032;2022-09-02T06:41:26;2.77;;;1.60;;
18612;SDS011;9436;52.152;21.032;2022-09-02T06:43:55;3.37;;;1.47;;
18612;SDS011;9436;52.152;21.032;2022-09-02T06:46:26;4.10;;;1.60;;
18612;SDS011;9436;52.152;21.032;2022-09-02T06:48:54;2.57;;;1.40;;
18612;SDS011;9436;52.152;21.032;2022-09-02T06:51:22;2.67;;;1.50;;
18612;SDS011;9436;52.152;21.032;2022-09-02T06:53:51;3.23;;;1.60;;
18612;SDS011;9436;52.152;21.032;2022-09-02T06:56:18;2.20;;;1.40;;
18612;SDS011;9436;52.152;21.032;2022-09-02T06:58:45;2.20;;;1.30;;
18612;SDS011;9436;52.152;21.032;2022-09-02T07:01:16;2.17;;;1.30;;
18612;SDS011;9436;52.152;21.032;2022-09-02T07:03:44;2.63;;;1.17;;
18612;SDS011;9436;52.152;21.032;2022-09-02T07:06:33;2.30;;;1.20;;
18612;SDS011;9436;52.152;21.032;2022-09-02T07:09:01;2.03;;;1.40;;
18612;SDS011;9436;52.152;21.032;2022-09-02T07:11:29;1.47;;;1.10;;
18612;SDS011;9436;52.152;21.032;2022-09-02T07:13:56;2.40;;;1.20;;
18612;SDS011;9436;52.152;21.032;2022-09-02T07:16:25;1.40;;;1.10;;
18612;SDS011;9436;52.152;21.032;2022-09-02T07:18:53;1.30;;;1.00;;
18612;SDS011;9436;52.152;21.032;2022-09-02T07:21:20;2.50;;;1.00;;
18612;SDS011;9436;52.152;21.032;2022-09-02T07:23:48;1.53;;;1.10;;
18612;SDS011;9436;52.152;21.032;2022-09-02T07:26:16;1.90;;;1.10;;
18612;SDS011;9436;52.152;21.032;2022-09-02T07:28:43;1.30;;;1.13;;
18612;SDS011;9436;52.152;21.032;2022-09-02T07:31:11;2.57;;;1.10;;
18612;SDS011;9436;52.152;21.032;2022-09-02T07:33:40;3.23;;;1.37;;
18612;SDS011;9436;52.152;21.032;2022-09-02T07:36:09;1.57;;;0.93;;
18612;SDS011;9436;52.152;21.032;2022-09-02T07:38:37;3.27;;;0.93;;
18612;SDS011;9436;52.152;21.032;2022-09-02T07:41:06;1.40;;;1.00;;
18612;SDS011;9436;52.152;21.032;2022-09-02T07:43:35;2.03;;;1.23;;
18612;SDS011;9436;52.152;21.032;2022-09-02T07:46:03;2.23;;;1.10;;
18612;SDS011;9436;52.152;21.032;2022-09-02T07:48:31;1.93;;;1.10;;
18612;SDS011;9436;52.152;21.032;2022-09-02T07:50:59;1.87;;;1.03;;
18612;SDS011;9436;52.152;21.032;2022-09-02T07:53:27;2.27;;;1.13;;
18612;SDS011;9436;52.152;21.032;2022-09-02T07:55:55;1.10;;;1.00;;
18612;SDS011;9436;52.152;21.032;2022-09-02T07:58:24;1.00;;;0.83;;
18612;SDS011;9436;52.152;21.032;2022-09-02T08:00:52;1.13;;;1.00;;
18612;SDS011;9436;52.152;21.032;2022-09-02T08:03:21;1.80;;;1.00;;
18612;SDS011;9436;52.152;21.032;2022-09-02T08:05:49;2.13;;;0.93;;
18612;SDS011;9436;52.152;21.032;2022-09-02T08:08:16;1.73;;;0.90;;
18612;SDS011;9436;52.152;21.032;2022-09-02T08:10:45;1.23;;;0.80;;
18612;SDS011;9436;52.152;21.032;2022-09-02T08:13:13;5.20;;;1.13;;
18612;SDS011;9436;52.152;21.032;2022-09-02T08:15:42;2.03;;;1.07;;
18612;SDS011;9436;52.152;21.032;2022-09-02T08:18:09;3.60;;;1.00;;
18612;SDS011;9436;52.152;21.032;2022-09-02T08:20:36;2.03;;;1.23;;
18612;SDS011;9436;52.152;21.032;2022-09-02T08:23:03;1.43;;;0.90;;
18612;SDS011;9436;52.152;21.032;2022-09-02T08:25:31;1.60;;;1.00;;
18612;SDS011;9436;52.152;21.032;2022-09-02T08:27:58;2.10;;;0.90;;
18612;SDS011;9436;52.152;21.032;2022-09-02T08:30:25;1.53;;;0.70;;
18612;SDS011;9436;52.152;21.032;2022-09-02T08:32:54;2.10;;;0.90;;
18612;SDS011;9436;52.152;21.032;2022-09-02T08:35:21;1.23;;;1.13;;
18612;SDS011;9436;52.152;21.032;2022-09-02T08:37:48;1.50;;;1.07;;
18612;SDS011;9436;52.152;21.032;2022-09-02T08:40:16;2.50;;;1.00;;
18612;SDS011;9436;52.152;21.032;2022-09-02T08:42:45;2.20;;;1.00;;
18612;SDS011;9436;52.152;21.032;2022-09-02T08:45:17;2.23;;;1.00;;
18612;SDS011;9436;52.152;21.032;2022-09-02T08:47:49;1.33;;;0.90;;
18612;SDS011;9436;52.152;21.032;2022-09-02T08:50:23;3.07;;;0.80;;
18612;SDS011;9436;52.152;21.032;2022-09-02T08:52:53;4.60;;;1.27;;
18612;SDS011;9436;52.152;21.032;2022-09-02T08:55:25;2.37;;;1.03;;
18612;SDS011;9436;52.152;21.032;2022-09-02T08:57:58;1.67;;;0.90;;
18612;SDS011;9436;52.152;21.032;2022-09-02T09:00:27;0.73;;;0.70;;
18612;SDS011;9436;52.152;21.032;2022-09-02T09:02:56;1.47;;;0.80;;
18612;SDS011;9436;52.152;21.032;2022-09-02T09:05:35;3.90;;;1.00;;
18612;SDS011;9436;52.152;21.032;2022-09-02T09:08:11;2.17;;;0.70;;
18612;SDS011;9436;52.152;21.032;2022-09-02T09:10:44;1.53;;;0.70;;
18612;SDS011;9436;52.152;21.032;2022-09-02T09:13:34;1.63;;;0.70;;
18612;SDS011;9436;52.152;21.032;2022-09-02T09:16:22;1.60;;;0.70;;
18612;SDS011;9436;52.152;21.032;2022-09-02T09:18:59;2.20;;;0.70;;
18612;SDS011;9436;52.152;21.032;2022-09-02T09:21:33;2.40;;;0.70;;
18612;SDS011;9436;52.152;21.032;2022-09-02T09:24:01;1.13;;;0.40;;
18612;SDS011;9436;52.152;21.032;2022-09-02T09:26:35;0.80;;;0.60;;
18612;SDS011;9436;52.152;21.032;2022-09-02T09:29:06;0.67;;;0.40;;
18612;SDS011;9436;52.152;21.032;2022-09-02T09:31:33;2.37;;;0.97;;
18612;SDS011;9436;52.152;21.032;2022-09-02T09:34:03;0.70;;;0.70;;
18612;SDS011;9436;52.152;21.032;2022-09-02T09:39:25;1.33;;;0.70;;
18612;SDS011;9436;52.152;21.032;2022-09-02T09:41:54;0.87;;;0.70;;
18612;SDS011;9436;52.152;21.032;2022-09-02T09:44:36;0.83;;;0.60;;
18612;SDS011;9436;52.152;21.032;2022-09-02T09:47:10;1.70;;;0.53;;
18612;SDS011;9436;52.152;21.032;2022-09-02T09:49:43;1.57;;;0.63;;
18612;SDS011;9436;52.152;21.032;2022-09-02T09:52:14;0.37;;;0.37;;
18612;SDS011;9436;52.152;21.032;2022-09-02T09:54:49;0.70;;;0.70;;
18612;SDS011;9436;52.152;21.032;2022-09-02T09:57:36;0.63;;;0.50;;
18612;SDS011;9436;52.152;21.032;2022-09-02T10:00:09;0.70;;;0.70;;
18612;SDS011;9436;52.152;21.032;2022-09-02T10:02:47;1.97;;;0.67;;
18612;SDS011;9436;52.152;21.032;2022-09-02T10:05:16;0.80;;;0.67;;
18612;SDS011;9436;52.152;21.032;2022-09-02T10:07:54;1.60;;;0.50;;
18612;SDS011;9436;52.152;21.032;2022-09-02T10:10:23;1.77;;;0.60;;
18612;SDS011;9436;52.152;21.032;2022-09-02T10:12:53;1.00;;;0.60;;
18612;SDS011;9436;52.152;21.032;2022-09-02T10:15:26;0.70;;;0.50;;
18612;SDS011;9436;52.152;21.032;2022-09-02T10:18:00;3.57;;;0.80;;
18612;SDS011;9436;52.152;21.032;2022-09-02T10:20:42;1.20;;;0.67;;
18612;SDS011;9436;52.152;21.032;2022-09-02T10:23:19;1.60;;;0.60;;
18612;SDS011;9436;52.152;21.032;2022-09-02T10:25:54;0.87;;;0.70;;
18612;SDS011;9436;52.152;21.032;2022-09-02T10:28:33;1.67;;;0.60;;
18612;SDS011;9436;52.152;21.032;2022-09-02T10:31:10;1.03;;;0.50;;
18612;SDS011;9436;52.152;21.032;2022-09-02T10:33:46;0.73;;;0.43;;
18612;SDS011;9436;52.152;21.032;2022-09-02T10:36:27;1.23;;;0.40;;
18612;SDS011;9436;52.152;21.032;2022-09-02T10:39:04;3.33;;;0.40;;
18612;SDS011;9436;52.152;21.032;2022-09-02T10:41:39;1.23;;;0.50;;
18612;SDS011;9436;52.152;21.032;2022-09-02T10:46:59;1.13;;;0.70;;
18612;SDS011;9436;52.152;21.032;2022-09-02T10:52:22;0.40;;;0.40;;
18612;SDS011;9436;52.152;21.032;2022-09-02T10:55:05;0.63;;;0.40;;
18612;SDS011;9436;52.152;21.032;2022-09-02T10:57:41;0.60;;;0.50;;
18612;SDS011;9436;52.152;21.032;2022-09-02T11:00:14;0.50;;;0.50;;
18612;SDS011;9436;52.152;21.032;2022-09-02T11:02:44;1.23;;;0.60;;
18612;SDS011;9436;52.152;21.032;2022-09-02T11:05:17;1.03;;;0.60;;
18612;SDS011;9436;52.152;21.032;2022-09-02T11:07:48;0.67;;;0.53;;
18612;SDS011;9436;52.152;21.032;2022-09-02T11:10:22;0.60;;;0.47;;
18612;SDS011;9436;52.152;21.032;2022-09-02T11:12:56;0.50;;;0.50;;
18612;SDS011;9436;52.152;21.032;2022-09-02T11:15:32;0.57;;;0.33;;
18612;SDS011;9436;52.152;21.032;2022-09-02T11:18:07;0.93;;;0.60;;
18612;SDS011;9436;52.152;21.032;2022-09-02T11:20:40;0.70;;;0.50;;
18612;SDS011;9436;52.152;21.032;2022-09-02T11:23:15;0.83;;;0.60;;
18612;SDS011;9436;52.152;21.032;2022-09-02T11:25:51;0.43;;;0.43;;
18612;SDS011;9436;52.152;21.032;2022-09-02T11:28:26;0.93;;;0.33;;
18612;SDS011;9436;52.152;21.032;2022-09-02T11:31:00;0.37;;;0.37;;
18612;SDS011;9436;52.152;21.032;2022-09-02T11:33:35;0.97;;;0.60;;
18612;SDS011;9436;52.152;21.032;2022-09-02T11:36:10;0.60;;;0.50;;
18612;SDS011;9436;52.152;21.032;2022-09-02T11:38:39;0.60;;;0.60;;
18612;SDS011;9436;52.152;21.032;2022-09-02T11:41:25;0.80;;;0.50;;
18612;SDS011;9436;52.152;21.032;2022-09-02T11:44:00;1.70;;;0.50;;
18612;SDS011;9436;52.152;21.032;2022-09-02T11:46:48;1.00;;;0.47;;
18612;SDS011;9436;52.152;21.032;2022-09-02T11:49:39;1.03;;;0.50;;
18612;SDS011;9436;52.152;21.032;2022-09-02T11:52:30;0.53;;;0.50;;
18612;SDS011;9436;52.152;21.032;2022-09-02T11:55:13;1.50;;;0.60;;
18612;SDS011;9436;52.152;21.032;2022-09-02T11:57:51;0.50;;;0.50;;
18612;SDS011;9436;52.152;21.032;2022-09-02T12:00:26;0.40;;;0.40;;
18612;SDS011;9436;52.152;21.032;2022-09-02T12:05:47;0.50;;;0.50;;
18612;SDS011;9436;52.152;21.032;2022-09-02T12:11:39;1.27;;;0.57;;
18612;SDS011;9436;52.152;21.032;2022-09-02T12:14:11;0.80;;;0.50;;
18612;SDS011;9436;52.152;21.032;2022-09-02T12:20:05;2.30;;;0.67;;
18612;SDS011;9436;52.152;21.032;2022-09-02T12:22:34;1.87;;;0.60;;
18612;SDS011;9436;52.152;21.032;2022-09-02T12:28:09;0.60;;;0.60;;
18612;SDS011;9436;52.152;21.032;2022-09-02T12:33:37;0.83;;;0.50;;
18612;SDS011;9436;52.152;21.032;2022-09-02T12:36:05;1.03;;;0.33;;
18612;SDS011;9436;52.152;21.032;2022-09-02T12:38:37;0.77;;;0.60;;
18612;SDS011;9436;52.152;21.032;2022-09-02T12:41:06;2.23;;;0.73;;
18612;SDS011;9436;52.152;21.032;2022-09-02T12:46:55;1.17;;;0.60;;
18612;SDS011;9436;52.152;21.032;2022-09-02T12:49:35;1.37;;;0.70;;
18612;SDS011;9436;52.152;21.032;2022-09-02T12:52:08;1.33;;;0.60;;
18612;SDS011;9436;52.152;21.032;2022-09-02T12:54:40;0.87;;;0.70;;
18612;SDS011;9436;52.152;21.032;2022-09-02T12:57:11;1.37;;;0.60;;
18612;SDS011;9436;52.152;21.032;2022-09-02T12:59:40;0.70;;;0.50;;
18612;SDS011;9436;52.152;21.032;2022-09-02T13:02:19;1.67;;;0.60;;
18612;SDS011;9436;52.152;21.032;2022-09-02T13:04:59;0.67;;;0.67;;
18612;SDS011;9436;52.152;21.032;2022-09-02T13:07:44;0.70;;;0.50;;
18612;SDS011;9436;52.152;21.032;2022-09-02T13:13:38;0.83;;;0.70;;
18612;SDS011;9436;52.152;21.032;2022-09-02T13:16:32;2.37;;;0.93;;
18612;SDS011;9436;52.152;21.032;2022-09-02T13:19:32;2.23;;;0.70;;
18612;SDS011;9436;52.152;21.032;2022-09-02T13:22:18;0.93;;;0.70;;
18612;SDS011;9436;52.152;21.032;2022-09-02T13:25:17;0.77;;;0.57;;
18612;SDS011;9436;52.152;21.032;2022-09-02T13:31:09;1.33;;;0.70;;
18612;SDS011;9436;52.152;21.032;2022-09-02T13:33:43;2.60;;;0.67;;
18612;SDS011;9436;52.152;21.032;2022-09-02T13:36:25;0.67;;;0.60;;
18612;SDS011;9436;52.152;21.032;2022-09-02T13:38:53;0.70;;;0.70;;
18612;SDS011;9436;52.152;21.032;2022-09-02T13:41:27;1.63;;;0.80;;
18612;SDS011;9436;52.152;21.032;2022-09-02T13:44:04;1.63;;;0.50;;
18612;SDS011;9436;52.152;21.032;2022-09-02T13:46:32;1.13;;;0.60;;
18612;SDS011;9436;52.152;21.032;2022-09-02T13:49:08;1.13;;;0.60;;
18612;SDS011;9436;52.152;21.032;2022-09-02T13:51:44;0.83;;;0.30;;
18612;SDS011;9436;52.152;21.032;2022-09-02T13:54:11;0.63;;;0.50;;
18612;SDS011;9436;52.152;21.032;2022-09-02T13:56:39;0.40;;;0.40;;
18612;SDS011;9436;52.152;21.032;2022-09-02T13:59:06;2.23;;;0.60;;
18612;SDS011;9436;52.152;21.032;2022-09-02T14:01:35;4.27;;;0.83;;
18612;SDS011;9436;52.152;21.032;2022-09-02T14:04:04;1.50;;;0.60;;
18612;SDS011;9436;52.152;21.032;2022-09-02T14:06:37;1.00;;;0.80;;
18612;SDS011;9436;52.152;21.032;2022-09-02T14:09:10;2.37;;;0.60;;
18612;SDS011;9436;52.152;21.032;2022-09-02T14:11:45;2.43;;;0.77;;
18612;SDS011;9436;52.152;21.032;2022-09-02T14:14:13;1.70;;;0.70;;
18612;SDS011;9436;52.152;21.032;2022-09-02T14:16:42;0.97;;;0.60;;
18612;SDS011;9436;52.152;21.032;2022-09-02T14:19:10;2.17;;;0.53;;
18612;SDS011;9436;52.152;21.032;2022-09-02T14:21:50;1.83;;;0.50;;
18612;SDS011;9436;52.152;21.032;2022-09-02T14:24:22;1.13;;;0.60;;
18612;SDS011;9436;52.152;21.032;2022-09-02T14:26:51;2.20;;;0.70;;
18612;SDS011;9436;52.152;21.032;2022-09-02T14:29:19;1.03;;;0.50;;
18612;SDS011;9436;52.152;21.032;2022-09-02T14:32:01;0.87;;;0.30;;
18612;SDS011;9436;52.152;21.032;2022-09-02T14:34:34;0.70;;;0.50;;
18612;SDS011;9436;52.152;21.032;2022-09-02T14:37:17;0.60;;;0.60;;
18612;SDS011;9436;52.152;21.032;2022-09-02T14:39:51;1.47;;;0.50;;
18612;SDS011;9436;52.152;21.032;2022-09-02T14:42:19;0.87;;;0.40;;
18612;SDS011;9436;52.152;21.032;2022-09-02T14:44:46;2.00;;;0.50;;
18612;SDS011;9436;52.152;21.032;2022-09-02T14:47:14;2.40;;;0.50;;
18612;SDS011;9436;52.152;21.032;2022-09-02T14:49:46;0.80;;;0.60;;
18612;SDS011;9436;52.152;21.032;2022-09-02T14:52:17;1.03;;;0.60;;
18612;SDS011;9436;52.152;21.032;2022-09-02T14:54:46;1.60;;;0.60;;
18612;SDS011;9436;52.152;21.032;2022-09-02T14:57:22;0.97;;;0.50;;
18612;SDS011;9436;52.152;21.032;2022-09-02T14:59:52;1.33;;;0.70;;
18612;SDS011;9436;52.152;21.032;2022-09-02T15:02:21;1.70;;;0.60;;
18612;SDS011;9436;52.152;21.032;2022-09-02T15:04:49;0.90;;;0.57;;
18612;SDS011;9436;52.152;21.032;2022-09-02T15:07:16;0.63;;;0.60;;
18612;SDS011;9436;52.152;21.032;2022-09-02T15:09:43;0.97;;;0.60;;
18612;SDS011;9436;52.152;21.032;2022-09-02T15:12:10;1.60;;;0.57;;
18612;SDS011;9436;52.152;21.032;2022-09-02T15:14:40;0.83;;;0.67;;
18612;SDS011;9436;52.152;21.032;2022-09-02T15:17:07;2.97;;;0.93;;
18612;SDS011;9436;52.152;21.032;2022-09-02T15:19:36;1.33;;;0.70;;
18612;SDS011;9436;52.152;21.032;2022-09-02T15:22:03;1.33;;;0.50;;
18612;SDS011;9436;52.152;21.032;2022-09-02T15:24:31;1.00;;;0.60;;
18612;SDS011;9436;52.152;21.032;2022-09-02T15:26:58;1.40;;;0.50;;
18612;SDS011;9436;52.152;21.032;2022-09-02T15:29:25;0.50;;;0.40;;
18612;SDS011;9436;52.152;21.032;2022-09-02T15:31:54;1.33;;;0.50;;
18612;SDS011;9436;52.152;21.032;2022-09-02T15:34:21;2.23;;;0.60;;
18612;SDS011;9436;52.152;21.032;2022-09-02T15:36:48;0.40;;;0.40;;
18612;SDS011;9436;52.152;21.032;2022-09-02T15:39:16;0.60;;;0.60;;
18612;SDS011;9436;52.152;21.032;2022-09-02T15:41:43;1.57;;;0.73;;